Time;durP1;ratioP1;P1;durP2;ratioP2;P2;SDS_P1;SDS_P2;PMS_P1;PMS_P2;Temp;Humidity;BMP_temperature;BMP_pressure;BME280_temperature;BME280_humidity;BME280_pressure;Samples;Min_cycle;Max_cycle;Signal;HPM_P1;HPM_P2
2021/04/01 00:00:46;;;;;;;16.30;5.72;;;;;;;11.00;67.27;98334.56;5015445;28;20025;-73
2021/04/01 00:03:12;;;;;;;9.32;6.15;;;;;;;11.02;66.97;98332.38;5033239;28;20053;-73
2021/04/01 00:05:38;;;;;;;14.93;6.30;;;;;;;10.85;67.53;98321.03;5032612;28;20025;-73
2021/04/01 00:08:03;;;;;;;9.50;5.85;;;;;;;10.93;67.54;98326.69;5032944;28;20025;-74
2021/04/01 00:10:38;;;;;;;9.43;5.63;;;;;;;10.74;68.23;98321.13;5032990;28;20017;-74
2021/04/01 00:13:04;;;;;;;13.32;6.20;;;;;;;10.77;68.07;98321.66;5033426;28;20037;-73
2021/04/01 00:15:30;;;;;;;12.48;5.93;;;;;;;10.57;69.01;98320.72;5032447;28;20021;-73
2021/04/01 00:17:55;;;;;;;14.18;6.88;;;;;;;10.43;69.58;98324.41;5032801;28;20390;-74
2021/04/01 00:20:21;;;;;;;9.48;5.18;;;;;;;10.54;69.07;98315.84;5033470;28;20493;-73
2021/04/01 00:22:47;;;;;;;13.48;7.10;;;;;;;10.52;68.99;98312.59;5032905;28;20037;-73
2021/04/01 00:25:15;;;;;;;16.27;6.20;;;;;;;10.55;69.18;98305.72;5032565;28;20033;-73
2021/04/01 00:27:40;;;;;;;12.88;6.13;;;;;;;10.56;68.91;98304.59;5032431;28;20022;-74
2021/04/01 00:30:08;;;;;;;13.15;6.43;;;;;;;10.39;69.50;98310.50;5032373;28;20040;-73
2021/04/01 00:32:34;;;;;;;8.65;5.47;;;;;;;10.38;69.30;98300.66;5032317;28;20108;-73
2021/04/01 00:35:00;;;;;;;9.90;5.45;;;;;;;10.27;69.41;98301.00;5014574;28;20029;-73
2021/04/01 00:37:25;;;;;;;9.07;5.13;;;;;;;10.42;69.15;98304.44;5032194;28;20040;-73
2021/04/01 00:39:50;;;;;;;10.75;4.57;;;;;;;10.28;69.41;98300.72;5032298;28;20033;-73
2021/04/01 00:42:16;;;;;;;5.72;4.00;;;;;;;10.26;68.92;98294.72;5032614;28;20036;-75
2021/04/01 00:44:41;;;;;;;6.32;4.18;;;;;;;10.23;69.02;98299.94;5032477;28;20033;-73
2021/04/01 00:47:08;;;;;;;9.38;4.30;;;;;;;10.15;69.03;98293.97;5032698;28;20017;-74
2021/04/01 00:49:37;;;;;;;7.75;5.05;;;;;;;9.96;70.02;98292.19;5032217;28;20050;-73
2021/04/01 00:52:04;;;;;;;11.40;6.20;;;;;;;9.96;70.11;98298.44;5032656;28;20577;-74
2021/04/01 00:54:29;;;;;;;10.57;5.05;;;;;;;10.03;69.82;98292.66;5032368;28;20021;-74
2021/04/01 00:56:55;;;;;;;10.70;5.00;;;;;;;9.82;71.00;98293.88;5032538;28;20433;-73
2021/04/01 00:59:20;;;;;;;9.90;6.22;;;;;;;10.03;70.48;98284.47;5032004;28;20120;-74
2021/04/01 01:01:49;;;;;;;9.07;5.90;;;;;;;9.96;70.16;98283.97;5032506;28;20032;-74
2021/04/01 01:04:15;;;;;;;10.48;5.72;;;;;;;10.09;70.20;98291.53;5036221;28;20032;-74
2021/04/01 01:06:41;;;;;;;10.82;5.60;;;;;;;10.10;69.99;98293.16;5032336;28;20030;-75
2021/04/01 01:09:08;;;;;;;14.20;7.43;;;;;;;9.84;70.94;98287.03;5032264;28;20033;-75
2021/04/01 01:11:34;;;;;;;15.00;7.63;;;;;;;9.88;70.95;98287.28;5032109;28;20474;-74
2021/04/01 01:14:01;;;;;;;10.45;5.70;;;;;;;9.72;71.54;98283.84;5031926;28;20037;-75
2021/04/01 01:16:26;;;;;;;10.38;5.82;;;;;;;9.89;70.77;98272.53;5031973;28;20017;-75
2021/04/01 01:18:52;;;;;;;15.98;6.82;;;;;;;9.83;71.13;98273.69;5031917;28;20021;-75
2021/04/01 01:21:17;;;;;;;12.15;6.25;;;;;;;9.95;70.79;98277.69;5031489;28;20088;-75
2021/04/01 01:23:44;;;;;;;18.13;7.63;;;;;;;9.83;70.74;98277.22;5013203;28;20469;-75
2021/04/01 01:26:10;;;;;;;10.98;7.00;;;;;;;9.80;71.09;98282.44;5031686;28;20068;-74
2021/04/01 01:28:36;;;;;;;9.68;5.82;;;;;;;9.77;71.39;98272.06;5014441;28;20065;-74
2021/04/01 01:31:02;;;;;;;9.07;5.80;;;;;;;9.72;71.94;98281.09;5014504;28;20047;-75
2021/04/01 01:33:27;;;;;;;12.75;6.57;;;;;;;9.83;71.46;98273.69;5031785;28;20393;-76
2021/04/01 01:35:54;;;;;;;9.30;5.78;;;;;;;9.69;71.46;98266.09;5031050;28;20100;-75
2021/04/01 01:38:21;;;;;;;7.97;5.50;;;;;;;9.61;72.13;98263.16;5030920;28;20407;-75
2021/04/01 01:40:47;;;;;;;12.27;6.28;;;;;;;9.71;71.98;98259.56;5031257;28;20405;-74
2021/04/01 01:43:14;;;;;;;10.07;6.03;;;;;;;9.62;72.38;98257.41;5013605;28;20022;-74
2021/04/01 01:45:42;;;;;;;9.38;6.53;;;;;;;9.48;72.40;98253.66;5031344;28;20043;-74
2021/04/01 01:48:08;;;;;;;8.38;5.45;;;;;;;9.69;71.75;98254.34;5027347;28;20029;-74
2021/04/01 01:50:36;;;;;;;11.73;6.15;;;;;;;9.34;72.83;98244.44;5018191;28;20053;-74
2021/04/01 01:53:03;;;;;;;11.10;6.07;;;;;;;9.42;72.71;98243.03;5012089;28;20025;-74
2021/04/01 01:55:30;;;;;;;10.10;6.10;;;;;;;9.15;73.65;98232.50;5016433;28;20402;-75
2021/04/01 01:57:56;;;;;;;10.13;6.93;;;;;;;9.13;73.98;98251.06;5031121;28;20034;-74
2021/04/01 02:00:53;;;;;;;9.77;6.22;;;;;;;8.99;74.28;98237.19;5021512;28;20040;-74
2021/04/01 02:03:19;;;;;;;;;;;;;;;8.85;74.60;98249.81;4993375;28;20053;-74
2021/04/01 02:05:44;;;;;;;10.90;6.20;;;;;;;8.79;75.04;98244.63;5011216;28;19919;-74
2021/04/01 02:08:12;;;;;;;10.00;5.82;;;;;;;9.05;74.10;98240.75;5011158;28;20037;-73
2021/04/01 02:10:42;;;;;;;13.35;6.28;;;;;;;9.19;73.28;98239.03;5010878;28;20443;-73
2021/04/01 02:13:09;;;;;;;9.20;6.65;;;;;;;9.26;72.78;98236.84;5023877;28;20072;-73
2021/04/01 02:15:37;;;;;;;10.52;6.97;;;;;;;9.15;72.99;98232.50;5030172;28;20109;-74
2021/04/01 02:18:06;;;;;;;12.35;6.63;;;;;;;9.18;73.01;98231.94;5030707;28;20065;-74
2021/04/01 02:20:40;;;;;;;9.93;6.45;;;;;;;9.18;73.38;98240.13;5031161;28;20029;-73
2021/04/01 02:23:06;;;;;;;9.50;5.20;;;;;;;9.33;72.42;98233.81;5030311;28;20025;-74
2021/04/01 02:25:32;;;;;;;9.55;6.38;;;;;;;9.33;72.66;98236.53;5029922;28;20104;-75
2021/04/01 02:27:57;;;;;;;8.88;6.15;;;;;;;9.17;73.05;98233.06;5030430;28;20108;-75
2021/04/01 02:30:23;;;;;;;14.63;6.65;;;;;;;9.16;73.08;98228.69;5030376;28;20452;-74
2021/04/01 02:32:48;;;;;;;12.27;7.07;;;;;;;8.92;74.30;98222.25;5029979;28;20020;-74
2021/04/01 02:35:14;;;;;;;10.55;7.03;;;;;;;8.75;75.05;98227.19;5029598;28;20029;-74
2021/04/01 02:37:39;;;;;;;12.98;7.57;;;;;;;8.60;75.72;98225.31;5030324;28;20030;-74
2021/04/01 02:40:05;;;;;;;15.80;8.20;;;;;;;8.52;75.86;98231.34;5030000;28;20080;-74
2021/04/01 02:42:30;;;;;;;14.55;9.90;;;;;;;8.85;74.69;98221.72;5030089;28;20033;-74
2021/04/01 02:44:56;;;;;;;13.95;8.77;;;;;;;8.70;75.27;98224.47;5030372;28;20024;-74
2021/04/01 02:47:21;;;;;;;15.35;9.32;;;;;;;8.85;74.85;98216.25;5030450;28;20021;-74
2021/04/01 02:49:46;;;;;;;16.00;8.95;;;;;;;8.68;75.19;98210.31;5029086;28;20049;-73
2021/04/01 02:52:12;;;;;;;21.33;8.52;;;;;;;8.77;75.16;98220.34;5029782;28;20079;-73
2021/04/01 02:54:37;;;;;;;12.07;8.60;;;;;;;8.91;74.82;98223.31;5029274;28;20037;-74
2021/04/01 02:57:16;;;;;;;12.30;8.02;;;;;;;8.57;75.64;98215.78;5029491;28;20068;-74
2021/04/01 02:59:43;;;;;;;13.75;7.63;;;;;;;8.43;76.30;98213.88;5028964;28;20072;-74
2021/04/01 03:02:10;;;;;;;10.15;7.82;;;;;;;8.44;76.12;98223.69;5029066;28;20069;-75
2021/04/01 03:04:35;;;;;;;10.18;7.57;;;;;;;8.53;75.71;98222.06;5029174;28;20450;-75
2021/04/01 03:07:03;;;;;;;13.23;7.72;;;;;;;8.48;75.57;98224.78;5029414;28;20060;-74
2021/04/01 03:09:28;;;;;;;13.88;9.27;;;;;;;8.48;75.56;98205.72;5029186;28;20040;-73
2021/04/01 03:11:54;;;;;;;11.98;8.00;;;;;;;8.69;75.06;98218.22;5032029;28;20025;-73
2021/04/01 03:14:19;;;;;;;13.25;7.25;;;;;;;8.79;74.44;98220.91;5015416;28;20452;-74
2021/04/01 03:16:45;;;;;;;12.07;8.15;;;;;;;8.70;74.93;98224.47;5033482;28;20108;-74
2021/04/01 03:19:10;;;;;;;13.23;8.60;;;;;;;8.67;74.88;98219.59;5037226;28;20025;-74
2021/04/01 03:21:36;;;;;;;9.50;7.13;;;;;;;8.76;74.46;98210.56;5020576;28;20030;-74
2021/04/01 03:24:01;;;;;;;10.10;7.15;;;;;;;8.55;75.28;98212.50;5018704;28;20048;-74
2021/04/01 03:26:27;;;;;;;14.98;7.57;;;;;;;8.58;75.26;98216.59;5019977;28;20384;-75
2021/04/01 03:28:52;;;;;;;11.50;6.25;;;;;;;8.64;75.23;98215.50;5037245;28;20053;-75
2021/04/01 03:31:18;;;;;;;13.93;6.32;;;;;;;8.56;75.21;98218.78;5018650;28;20161;-74
2021/04/01 03:33:43;;;;;;;9.00;7.30;;;;;;;8.58;75.33;98211.16;5034684;28;20040;-74
2021/04/01 03:36:08;;;;;;;14.15;7.82;;;;;;;8.60;75.12;98201.59;5032830;28;20596;-74
2021/04/01 03:38:34;;;;;;;11.35;7.22;;;;;;;8.50;75.53;98207.06;5015110;28;20037;-73
2021/04/01 03:40:59;;;;;;;16.15;9.60;;;;;;;8.45;75.84;98212.53;5034170;28;20036;-74
2021/04/01 03:43:26;;;;;;;11.13;7.47;;;;;;;8.48;75.66;98201.09;5034359;28;20059;-73
2021/04/01 03:45:52;;;;;;;16.92;7.25;;;;;;;8.46;76.02;98200.53;5032699;28;20482;-73
2021/04/01 03:48:17;;;;;;;12.45;6.90;;;;;;;8.49;75.61;98207.31;5032614;28;20049;-73
2021/04/01 03:50:43;;;;;;;12.85;7.78;;;;;;;8.34;76.52;98205.44;5032941;28;20061;-74
2021/04/01 03:53:08;;;;;;;20.30;9.23;;;;;;;8.20;77.15;98206.28;5033475;28;20021;-73
2021/04/01 04:00:39;;;;;;;10.75;6.70;;;;;;;8.26;77.12;98191.53;5032845;28;20041;-74
2021/04/01 04:14:12;;;;;;;11.40;5.80;;;;;;;8.01;77.56;98181.50;5032774;28;20116;-74
2021/04/01 04:16:37;;;;;;;8.43;5.75;;;;;;;7.90;78.04;98183.38;5033097;28;20024;-74
2021/04/01 04:19:04;;;;;;;8.38;6.68;;;;;;;8.14;77.31;98189.13;5032852;28;20475;-74
2021/04/01 04:21:29;;;;;;;10.27;6.35;;;;;;;7.94;77.91;98186.38;5033277;28;20439;-74
2021/04/01 04:23:55;;;;;;;10.60;5.85;;;;;;;7.95;78.18;98186.13;5014363;28;20116;-74
2021/04/01 04:26:22;;;;;;;7.82;5.47;;;;;;;7.93;77.97;98182.03;5025318;28;20103;-74
2021/04/01 04:28:48;;;;;;;9.80;6.55;;;;;;;8.15;77.28;98177.09;5021805;28;20018;-74
2021/04/01 04:31:13;;;;;;;10.63;6.25;;;;;;;7.93;77.78;98180.13;5031820;28;20045;-75
2021/04/01 04:33:39;;;;;;;14.77;6.45;;;;;;;7.71;78.71;98179.56;5025613;28;20036;-74
2021/04/01 04:36:05;;;;;;;10.35;5.45;;;;;;;7.59;79.79;98180.91;5013678;28;20069;-74
2021/04/01 04:38:31;;;;;;;10.85;6.15;;;;;;;7.88;78.68;98182.03;5018291;28;20067;-74
2021/04/01 04:40:57;;;;;;;9.95;6.45;;;;;;;7.89;78.30;98172.78;5032518;28;20045;-74
2021/04/01 04:43:32;;;;;;;12.73;8.20;;;;;;;8.11;77.68;98178.75;5032348;28;20041;-74
2021/04/01 04:45:58;;;;;;;8.27;6.15;;;;;;;8.18;77.48;98179.28;5031937;28;20061;-75
2021/04/01 04:48:25;;;;;;;13.05;6.80;;;;;;;8.17;77.32;98180.41;5014757;28;20056;-74
2021/04/01 04:50:51;;;;;;;11.77;6.22;;;;;;;8.18;77.53;98168.38;5014592;28;20073;-75
2021/04/01 04:53:16;;;;;;;10.57;6.85;;;;;;;8.06;78.13;98181.47;5032743;28;20034;-75
2021/04/01 04:55:50;;;;;;;12.15;7.55;;;;;;;8.03;78.16;98176.56;5032254;28;20113;-74
2021/04/01 04:58:24;;;;;;;15.30;7.65;;;;;;;7.84;79.02;98172.75;5032820;28;20037;-75
2021/04/01 05:01:14;;;;;;;12.55;6.65;;;;;;;7.96;78.51;98173.31;5032830;28;20379;-74
2021/04/01 05:09:03;;;;;;;33.97;18.17;;;;;;;8.02;78.75;98175.75;5031958;28;20038;-73
2021/04/01 05:11:32;;;;;;;16.45;8.30;;;;;;;8.51;77.53;98175.19;5014170;28;20167;-75
2021/04/01 05:13:57;;;;;;;10.90;6.70;;;;;;;7.90;77.80;98188.00;5029971;28;20119;-73
2021/04/01 05:16:23;;;;;;;10.13;5.95;;;;;;;7.80;78.88;98179.84;4996369;28;20084;-74
2021/04/01 05:18:49;;;;;;;13.65;7.57;;;;;;;8.31;77.64;98181.47;5026166;28;20029;-74
2021/04/01 05:21:15;;;;;;;13.85;7.63;;;;;;;8.70;75.34;98187.13;5030757;28;20021;-73
2021/04/01 05:23:48;;;;;;;9.82;6.70;;;;;;;8.88;74.44;98180.22;5031398;28;20065;-73
2021/04/01 05:29:20;;;;;;;9.85;6.65;;;;;;;8.93;74.55;98191.94;5030289;28;20040;-74
2021/04/01 05:31:43;;;;;;;15.07;6.68;;;;;;;9.02;73.66;98186.75;5029282;28;20030;-73
2021/04/01 05:34:09;;;;;;;15.93;6.88;;;;;;;8.99;73.69;98193.53;5030149;28;20505;-73
2021/04/01 05:36:39;;;;;;;15.77;6.80;;;;;;;9.11;73.40;98190.50;5012388;28;20484;-73
2021/04/01 05:39:09;;;;;;;12.57;7.38;;;;;;;9.18;73.55;98190.22;5015906;28;20037;-73
2021/04/01 05:41:35;;;;;;;13.52;7.20;;;;;;;9.35;72.32;98187.94;5037752;28;20076;-73
2021/04/01 05:49:32;;;;;;;14.35;9.40;;;;;;;9.04;73.58;98181.81;5027037;28;20026;-74
2021/04/01 06:05:52;;;;;;;13.27;6.88;;;;;;;9.65;71.03;98198.66;5034663;28;20143;-74
2021/04/01 06:08:24;;;;;;;12.25;7.55;;;;;;;9.93;70.01;98197.13;5029528;28;20062;-73
2021/04/01 06:10:51;;;;;;;9.90;6.80;;;;;;;10.13;69.70;98196.94;5010341;28;20026;-77
2021/04/01 06:13:19;;;;;;;11.55;8.02;;;;;;;10.21;69.26;98196.38;5028997;28;20029;-75
2021/04/01 06:15:48;;;;;;;11.10;7.47;;;;;;;10.25;69.09;98200.13;5029605;28;20132;-75
2021/04/01 06:18:16;;;;;;;13.32;7.28;;;;;;;10.32;69.25;98195.16;5029219;28;20071;-77
2021/04/01 06:20:45;;;;;;;10.93;7.35;;;;;;;10.50;68.26;98190.88;5011688;28;20033;-76
2021/04/01 06:23:14;;;;;;;11.38;7.30;;;;;;;11.00;66.80;98200.44;5029798;28;20076;-75
2021/04/01 06:25:40;;;;;;;10.23;7.28;;;;;;;10.95;66.74;98195.03;5029230;28;20021;-75
2021/04/01 06:28:11;;;;;;;13.98;7.85;;;;;;;11.09;66.01;98180.34;5009965;28;20025;-75
2021/04/01 06:30:50;;;;;;;29.45;17.00;;;;;;;11.45;64.87;98190.84;5025036;28;20009;-75
2021/04/01 06:33:21;;;;;;;20.25;13.63;;;;;;;11.87;62.92;98190.00;5024966;28;20108;-75
2021/04/01 06:35:56;;;;;;;29.05;16.30;;;;;;;11.90;63.03;98194.88;5027290;28;20041;-74
2021/04/01 06:38:26;;;;;;;17.42;7.65;;;;;;;11.75;63.13;98191.25;5024874;28;20033;-73
2021/04/01 06:40:58;;;;;;;13.13;7.57;;;;;;;11.75;63.37;98199.47;5027172;28;20029;-73
2021/04/01 06:43:24;;;;;;;12.63;7.30;;;;;;;12.04;63.09;98191.06;5028852;28;20132;-73
2021/04/01 06:46:02;;;;;;;12.27;7.03;;;;;;;12.06;62.36;98188.84;5012189;28;20079;-73
2021/04/01 06:52:02;;;;;;;14.45;7.70;;;;;;;12.29;62.49;98187.09;5019248;28;20538;-73
2021/04/01 07:03:25;;;;;;;10.60;5.93;;;;;;;12.58;59.98;98179.44;5031142;28;20029;-73
2021/04/01 07:05:58;;;;;;;13.40;6.70;;;;;;;12.56;60.66;98170.66;5036153;28;20033;-73
2021/04/01 07:08:55;;;;;;;10.48;6.70;;;;;;;13.15;59.07;98177.25;5018705;28;20033;-73
2021/04/01 07:11:42;;;;;;;12.00;6.40;;;;;;;13.24;58.23;98175.41;5038449;28;20037;-73
2021/04/01 07:14:14;;;;;;;13.35;7.03;;;;;;;13.59;56.87;98179.31;5035374;28;20025;-73
2021/04/01 07:47:31;;;;;;;14.93;8.13;;;;;;;15.75;49.37;98156.16;5038489;28;20076;-75
2021/04/01 07:50:07;;;;;;;14.95;7.43;;;;;;;16.26;49.17;98160.00;5037091;28;20034;-74
2021/04/01 07:52:35;;;;;;;15.32;9.95;;;;;;;16.29;47.92;98160.16;5036669;28;20021;-74
2021/04/01 07:55:43;;;;;;;13.23;8.20;;;;;;;16.88;46.41;98152.91;5037597;28;20020;-74
2021/04/01 08:04:08;;;;;;;15.98;9.15;;;;;;;18.84;40.58;98142.56;5036964;28;20529;-75
2021/04/01 08:06:10;;;;;;;12.60;7.00;;;;;;;19.91;39.28;98153.97;5023898;28;20037;-75
2021/04/01 08:08:39;;;;;;;19.30;8.40;;;;;;;20.09;38.91;98148.94;5040777;28;20028;-75
2021/04/01 08:11:07;;;;;;;11.90;7.13;;;;;;;22.36;34.65;98153.47;5040065;28;20769;-75
2021/04/01 08:13:36;;;;;;;13.70;6.80;;;;;;;21.77;35.22;98154.53;5044468;28;20505;-74
2021/04/01 08:16:04;;;;;;;12.05;6.45;;;;;;;21.66;35.00;98149.91;5049046;28;20021;-75
2021/04/01 08:18:36;;;;;;;10.05;5.97;;;;;;;20.48;36.71;98138.97;5049058;28;20041;-75
2021/04/01 08:21:06;;;;;;;11.85;7.65;;;;;;;20.92;36.30;98153.66;5049646;28;20021;-76
2021/04/01 08:23:55;;;;;;;11.80;6.95;;;;;;;20.75;36.14;98144.47;5049860;28;20837;-75
2021/04/01 08:26:37;;;;;;;12.18;6.55;;;;;;;21.60;35.44;98137.44;5041691;28;20441;-74
2021/04/01 08:29:22;;;;;;;9.88;6.07;;;;;;;23.01;32.53;98145.13;5029216;28;20034;-75
2021/04/01 08:36:52;;;;;;;16.17;6.88;;;;;;;22.49;33.63;98131.81;5035676;28;20034;-74
2021/04/01 08:39:23;;;;;;;11.48;7.90;;;;;;;22.68;33.29;98134.59;5029263;28;20077;-74
2021/04/01 08:41:56;;;;;;;15.05;7.03;;;;;;;23.15;32.12;98132.22;5010247;28;20021;-74
2021/04/01 08:44:54;;;;;;;10.52;5.95;;;;;;;23.11;31.84;98130.56;5041676;28;20075;-74
2021/04/01 08:47:53;;;;;;;18.70;5.95;;;;;;;23.77;31.18;98127.22;5041565;28;20049;-74
2021/04/01 08:50:56;;;;;;;16.30;5.95;;;;;;;22.75;32.42;98115.97;5036477;28;20498;-73
2021/04/01 08:53:58;;;;;;;11.80;5.72;;;;;;;24.29;29.84;98118.75;5041192;28;20059;-74
2021/04/01 08:56:28;;;;;;;12.90;5.57;;;;;;;23.60;31.10;98108.22;5043151;28;20494;-73
2021/04/01 08:59:00;;;;;;;7.85;5.57;;;;;;;25.34;28.20;98111.81;5033903;28;20030;-74
2021/04/01 09:01:36;;;;;;;17.02;7.40;;;;;;;25.25;28.18;98100.91;5034387;28;20037;-73
2021/04/01 09:04:02;;;;;;;13.60;6.40;;;;;;;25.57;28.27;98098.38;5036843;28;20028;-73
2021/04/01 09:06:34;;;;;;;11.35;7.57;;;;;;;24.10;29.50;98101.28;5031524;28;20491;-74
2021/04/01 09:09:04;;;;;;;16.95;13.18;;;;;;;24.00;29.97;98091.59;5026965;28;20639;-75
2021/04/01 09:11:54;;;;;;;13.50;5.82;;;;;;;25.39;28.32;98087.03;5015128;28;20124;-75
2021/04/01 09:14:29;;;;;;;9.70;6.32;;;;;;;23.72;30.35;98080.03;5018810;28;20049;-75
2021/04/01 09:17:12;;;;;;;12.25;5.70;;;;;;;24.37;29.60;98084.06;5030152;28;20505;-75
2021/04/01 09:19:43;;;;;;;10.23;5.03;;;;;;;25.20;28.38;98086.47;5029949;28;20079;-76
2021/04/01 09:22:20;;;;;;;12.10;7.07;;;;;;;25.21;28.37;98079.69;5030030;28;20036;-74
2021/04/01 09:25:00;;;;;;;15.35;9.25;;;;;;;24.23;29.61;98069.94;5047813;28;20044;-73
2021/04/01 09:27:26;;;;;;;17.77;10.75;;;;;;;24.38;30.06;98062.50;5042350;28;20064;-74
2021/04/01 09:30:09;;;;;;;10.52;6.63;;;;;;;24.65;29.27;98078.00;5038044;28;20061;-73
2021/04/01 09:32:37;;;;;;;12.60;6.40;;;;;;;26.98;26.67;98075.69;5030095;28;20030;-73
2021/04/01 09:35:05;;;;;;;11.30;6.75;;;;;;;24.78;28.78;98062.50;5012299;28;20516;-73
2021/04/01 09:37:32;;;;;;;11.57;7.45;;;;;;;25.82;27.53;98056.47;5029811;28;20137;-73
2021/04/01 09:40:11;;;;;;;13.57;6.63;;;;;;;25.92;28.05;98047.31;5030916;28;20039;-73
2021/04/01 09:42:51;;;;;;;15.82;6.90;;;;;;;26.22;27.55;98053.44;5031097;28;20105;-74
2021/04/01 09:45:28;;;;;;;10.82;6.50;;;;;;;24.92;29.12;98045.06;5030634;28;20056;-73
2021/04/01 09:48:00;;;;;;;13.60;6.75;;;;;;;25.13;28.78;98042.41;5029923;28;20039;-73
2021/04/01 09:50:30;;;;;;;12.55;7.00;;;;;;;26.01;27.41;98039.34;5028863;28;20414;-74
2021/04/01 09:53:15;;;;;;;12.57;6.60;;;;;;;25.33;27.93;98031.75;5012073;28;20107;-73
2021/04/01 09:55:42;;;;;;;11.53;6.73;;;;;;;25.17;28.77;98029.25;5029937;28;20597;-73
2021/04/01 09:58:21;;;;;;;11.93;5.90;;;;;;;26.39;27.59;98040.69;5030452;28;20025;-74
2021/04/01 10:03:38;;;;;;;11.90;6.43;;;;;;;26.52;27.04;98025.06;5032431;28;20053;-74
2021/04/01 10:06:03;;;;;;;15.23;7.15;;;;;;;26.86;26.11;98022.72;5031569;28;20028;-74
2021/04/01 10:08:31;;;;;;;14.40;7.43;;;;;;;28.00;24.53;98022.09;5031845;28;20454;-74
2021/04/01 10:11:15;;;;;;;9.95;5.85;;;;;;;28.22;24.81;98014.38;5031059;28;20043;-73
2021/04/01 10:13:40;;;;;;;93.55;71.93;;;;;;;28.01;24.93;98003.19;5029631;28;20044;-74
2021/04/01 10:16:22;;;;;;;12.95;6.80;;;;;;;28.51;24.08;98000.91;5029347;28;20025;-75
2021/04/01 10:18:48;;;;;;;11.77;5.82;;;;;;;29.09;23.54;97994.44;5031027;28;20037;-74
2021/04/01 10:21:13;;;;;;;10.85;6.10;;;;;;;28.61;23.63;97983.94;5037992;28;20573;-75
2021/04/01 10:23:52;;;;;;;11.18;6.70;;;;;;;27.58;25.29;97986.50;5034978;28;20036;-74
2021/04/01 10:26:32;;;;;;;15.18;7.78;;;;;;;27.63;24.99;97982.47;5028960;28;20025;-74
2021/04/01 10:29:10;;;;;;;19.70;7.57;;;;;;;27.40;25.26;97971.69;5027121;28;20104;-73
2021/04/01 10:31:43;;;;;;;21.58;7.03;;;;;;;28.39;24.33;97968.41;5028768;28;20036;-73
2021/04/01 10:34:31;;;;;;;14.57;7.15;;;;;;;28.13;24.69;97966.97;5028240;28;20037;-73
2021/04/01 10:37:00;;;;;;;15.77;7.05;;;;;;;27.92;25.06;97957.81;5026148;28;20071;-73
2021/04/01 10:39:32;;;;;;;17.45;7.78;;;;;;;27.91;24.38;97954.22;5028536;28;20029;-73
2021/04/01 10:41:59;;;;;;;16.30;7.22;;;;;;;28.26;24.51;97952.41;5028863;28;20056;-74
2021/04/01 10:44:25;;;;;;;14.43;8.35;;;;;;;28.86;23.64;97951.97;5028601;28;20482;-74
2021/04/01 10:46:56;;;;;;;16.73;7.80;;;;;;;26.99;25.80;97948.09;5010762;28;20040;-73
2021/04/01 10:49:40;;;;;;;18.65;7.72;;;;;;;28.12;24.59;97942.09;5027540;28;20628;-73
2021/04/01 10:52:16;;;;;;;15.60;7.45;;;;;;;27.25;25.88;97922.38;5025547;28;20083;-74
2021/04/01 10:54:45;;;;;;;13.80;7.25;;;;;;;27.42;25.32;97929.91;5028543;28;20045;-74
2021/04/01 10:57:13;;;;;;;21.02;8.43;;;;;;;27.11;25.79;97922.38;5038255;28;20130;-74
2021/04/01 10:59:46;;;;;;;18.67;7.18;;;;;;;27.70;25.62;97923.38;5034926;28;20386;-74
2021/04/01 11:02:21;;;;;;;21.25;8.00;;;;;;;27.38;25.50;97915.06;5036813;28;20116;-73
2021/04/01 11:04:57;;;;;;;18.20;8.73;;;;;;;26.85;26.28;97909.59;5034918;28;20017;-73
2021/04/01 11:07:32;;;;;;;14.40;7.47;;;;;;;26.46;26.69;97898.41;5035600;28;20022;-73
2021/04/01 11:10:02;;;;;;;14.50;7.03;;;;;;;25.08;29.29;97891.59;5035742;28;20467;-73
2021/04/01 11:12:28;;;;;;;14.25;7.18;;;;;;;24.50;29.47;97884.00;5038487;28;20088;-73
2021/04/01 11:15:03;;;;;;;12.25;7.07;;;;;;;24.50;30.23;97886.00;5018816;28;20029;-72
2021/04/01 11:17:31;;;;;;;15.88;7.97;;;;;;;23.98;30.67;97882.34;5037575;28;20432;-75
2021/04/01 11:19:59;;;;;;;19.52;8.30;;;;;;;24.20;30.41;97863.00;5038546;28;20068;-76
2021/04/01 11:22:25;;;;;;;17.13;8.07;;;;;;;24.08;30.72;97866.88;5036193;28;20695;-75
2021/04/01 11:24:50;;;;;;;15.35;7.25;;;;;;;24.03;30.42;97856.03;5038423;28;20182;-75
2021/04/01 11:27:18;;;;;;;18.20;7.68;;;;;;;24.37;29.96;97856.75;5039232;28;20021;-75
2021/04/01 11:29:54;;;;;;;18.75;7.15;;;;;;;24.69;30.29;97857.75;5037587;28;20044;-75
2021/04/01 11:32:23;;;;;;;54.90;10.10;;;;;;;24.36;30.04;97855.94;5034445;28;20076;-74
2021/04/01 11:34:51;;;;;;;14.85;6.85;;;;;;;24.76;29.55;97851.41;5039809;28;20362;-75
2021/04/01 11:37:26;;;;;;;15.38;6.72;;;;;;;25.08;29.15;97852.41;5043298;28;20397;-73
2021/04/01 11:40:04;;;;;;;14.68;7.60;;;;;;;25.11;29.02;97845.22;5039006;28;20025;-74
2021/04/01 11:42:30;;;;;;;14.23;6.50;;;;;;;25.14;28.91;97839.63;5034247;28;20068;-74
2021/04/01 11:45:01;;;;;;;19.77;7.35;;;;;;;25.27;28.88;97835.28;4998090;28;20619;-75
2021/04/01 11:47:30;;;;;;;14.40;5.70;;;;;;;25.65;28.51;97833.00;5031044;28;20474;-73
2021/04/01 11:49:56;;;;;;;17.33;6.28;;;;;;;25.65;27.63;97831.00;5031213;28;20037;-73
2021/04/01 11:52:23;;;;;;;11.18;6.45;;;;;;;25.72;28.16;97825.41;5011500;28;20068;-73
2021/04/01 11:54:54;;;;;;;21.52;7.13;;;;;;;26.10;28.27;97829.44;5030590;28;20505;-73
2021/04/01 11:57:21;;;;;;;12.85;6.07;;;;;;;26.38;27.08;97823.03;5030647;28;20040;-72
2021/04/01 12:00:44;;;;;;;13.25;5.68;;;;;;;26.22;26.58;97814.25;5030045;28;20029;-72
2021/04/01 12:03:33;;;;;;;10.63;4.57;;;;;;;25.89;25.57;97813.41;5031359;28;20040;-74
2021/04/01 12:05:59;;;;;;;10.95;4.15;;;;;;;25.99;25.84;97811.81;5029912;28;20028;-71
2021/04/01 12:08:24;;;;;;;7.13;3.85;;;;;;;25.89;26.51;97813.41;5029620;28;20033;-72
2021/04/01 12:10:55;;;;;;;6.68;3.25;;;;;;;26.09;25.92;97808.22;5030363;28;20017;-73
2021/04/01 12:13:21;;;;;;;4.15;2.72;;;;;;;26.01;23.64;97801.00;5032798;28;20048;-71
2021/04/01 12:15:47;;;;;;;4.55;3.03;;;;;;;25.35;24.37;97805.28;5041690;28;20036;-70
2021/04/01 12:18:13;;;;;;;6.05;3.78;;;;;;;25.34;24.78;97796.06;5036799;28;20029;-72
2021/04/01 12:20:38;;;;;;;31.77;21.40;;;;;;;25.92;25.25;97783.75;5040833;28;20025;-72
2021/04/01 12:23:11;;;;;;;13.68;6.78;;;;;;;26.13;24.55;97786.56;5042683;28;20490;-71
2021/04/01 12:25:36;;;;;;;9.85;5.10;;;;;;;26.25;25.34;97783.38;5040467;28;20094;-71
2021/04/01 12:28:02;;;;;;;12.10;3.72;;;;;;;26.18;25.21;97774.19;5041722;28;20414;-72
2021/04/01 12:30:30;;;;;;;10.40;4.63;;;;;;;25.86;25.18;97777.78;5039956;28;20113;-74
2021/04/01 12:33:13;;;;;;;5.72;4.10;;;;;;;25.62;25.74;97764.56;5033764;28;20025;-72
2021/04/01 12:36:08;;;;;;;12.50;4.70;;;;;;;25.68;25.22;97756.53;5036756;28;20017;-72
2021/04/01 12:38:38;;;;;;;9.48;4.50;;;;;;;25.40;25.42;97763.69;5024082;28;20049;-71
2021/04/01 12:41:07;;;;;;;6.18;3.95;;;;;;;25.24;26.20;97760.47;5046925;28;20060;-72
2021/04/01 12:43:37;;;;;;;7.20;3.85;;;;;;;25.41;25.44;97759.66;5026068;28;20025;-72
2021/04/01 12:46:04;;;;;;;10.75;3.80;;;;;;;25.28;25.81;97747.25;5042396;28;20044;-72
2021/04/01 12:49:00;;;;;;;9.50;4.15;;;;;;;25.19;25.48;97748.81;5039619;28;20479;-71
2021/04/01 12:51:25;;;;;;;7.77;4.33;;;;;;;25.24;25.86;97740.84;4998456;28;20081;-71
2021/04/01 12:54:07;;;;;;;5.60;3.08;;;;;;;25.39;25.72;97727.66;5037547;28;20451;-72
2021/04/01 12:56:45;;;;;;;6.22;3.58;;;;;;;25.39;25.57;97716.44;5037140;28;20034;-73
2021/04/01 12:59:18;;;;;;;6.22;3.95;;;;;;;25.42;25.91;97716.47;5030309;28;20024;-71
2021/04/01 13:01:56;;;;;;;6.82;3.58;;;;;;;25.17;26.21;97709.22;5030604;28;20116;-73
2021/04/01 13:04:22;;;;;;;6.80;3.25;;;;;;;25.22;26.46;97698.41;5035903;28;20616;-74
2021/04/01 13:11:54;;;;;;;8.45;4.25;;;;;;;25.08;26.24;97714.41;5030397;28;20076;-71
2021/04/01 13:14:20;;;;;;;12.57;4.18;;;;;;;25.00;25.97;97711.59;5029334;28;20029;-74
2021/04/01 13:16:46;;;;;;;5.90;3.70;;;;;;;24.89;26.43;97704.34;5033303;28;20025;-75
2021/04/01 13:19:12;;;;;;;9.35;3.63;;;;;;;24.75;27.31;97704.25;5040197;28;20036;-74
2021/04/01 13:21:52;;;;;;;12.38;3.28;;;;;;;24.61;27.32;97701.44;5034722;28;20030;-75
2021/04/01 13:24:28;;;;;;;4.65;3.08;;;;;;;24.40;27.94;97700.13;5016511;28;20037;-73
2021/04/01 13:26:55;;;;;;;5.35;3.47;;;;;;;24.46;28.00;97684.56;5032687;28;20433;-73
2021/04/01 13:29:23;;;;;;;7.22;2.70;;;;;;;24.74;27.53;97697.09;5012395;28;20053;-77